Nearby METAR Reports

 

KISP - Islip, New York, USA
Distance from station: SW 4mi, 6km
Updated: Thu, 09/21/2017 7:56 pm EDT
Overcast
Overcast
 Wind from N
Wind: N 10 mph , 17 km/h
Temperature: 72°F , 22°C
Dew Point: 55°F , 13°C
Humidity: 57%
Barometer: 29.99 inHg , 1015.6 hPa
Clouds: Overcast
Visibility: 10 miles , 16 km
Cloud details: Few Clouds 14000 ft
Mostly cloudy 20000 ft
Overcast 25000 ft
2017/09/21 23:56 KISP 212356Z 36009KT 10SM FEW140 BKN200 OVC250 22/13 A2999 RMK AO2 SLP155 T02220133 10244 20222 52006
KHWV - Shirley, New York, USA
Distance from station: E 10mi, 16km
Updated: Thu, 09/21/2017 7:56 pm EDT
Clear
Clear
 Wind from N
Wind: N 10 mph , 17 km/h
Temperature: 73°F , 23°C
Dew Point: 54°F , 12°C
Humidity: 50%
Barometer: 30.00 inHg , 1015.9 hPa
Clouds: Clear
Visibility: 10 miles , 16 km
2017/09/21 23:56 KHWV 212356Z AUTO 36009KT 10SM CLR 23/12 A3000 RMK AO2 SLP156 T02330122 10244 20228 53007
 
KFRG - Farmingdale, New York, USA
Distance from station: WSW 20mi, 33km
Updated: Thu, 09/21/2017 7:53 pm EDT
Clear
Clear
 Wind from NNE
Wind: NNE 6 mph , 9 km/h
Temperature: 72°F , 22°C
Dew Point: 63°F , 17°C
Humidity: 73%
Barometer: 30.01 inHg , 1016.3 hPa
Clouds: Clear
Visibility: 10 miles , 16 km
2017/09/21 23:53 KFRG 212353Z 03005KT 10SM CLR 22/17 A3001 RMK AO2 SLP160 T02220167 10250 20222 53007
KBDR - Bridgeport, Connecticut, USA
Distance from station: N 23mi, 37km
Updated: Thu, 09/21/2017 7:52 pm EDT
Clear
Clear
 Wind from N
Wind: N 8 mph , 13 km/h
Temperature: 73°F , 23°C
Dew Point: 55°F , 13°C
Humidity: 53%
Barometer: 30.00 inHg , 1015.9 hPa
Clouds: Clear
Visibility: 10 miles , 16 km
2017/09/21 23:52 KBDR 212352Z 35007KT 10SM CLR 23/13 A3000 RMK AO2 SLP160 T02280128 10250 20228 53006
 
KFOK - Westhampton Beac, New York, USA
Distance from station: E 23mi, 37km
Updated: Thu, 09/21/2017 7:53 pm EDT
Clear
Clear
 Wind from N
Wind: N 17 mph , 28 km/h, Gust: 26 mph , 43 km/h
Temperature: 70°F , 21°C
Dew Point: 52°F , 11°C
Humidity: 53%
Barometer: 29.99 inHg , 1015.6 hPa
Clouds: Clear
Visibility: 10 miles , 16 km
2017/09/21 23:53 KFOK 212353Z 36015G23KT 10SM CLR 21/11 A2999 RMK AO2 SLP154 T02110111 10228 20211 51005
KHVN - New Haven/Tweed, Connecticut, USA
Distance from station: NNE 31mi, 50km
Updated: Thu, 09/21/2017 7:53 pm EDT
Clear
Clear
 Wind from N
Wind: N 9 mph , 15 km/h
Temperature: 72°F , 22°C
Dew Point: 54°F , 12°C
Humidity: 53%
Barometer: 30.00 inHg , 1015.9 hPa
Clouds: Clear
Visibility: 10 miles , 16 km
2017/09/21 23:53 KHVN 212353Z 35008KT 10SM CLR 22/12 A3000 RMK AO2 SLP157 T02170122 10250 20217 50005
 
KHPN - White Plains, New York, USA
Distance from station: WNW 37mi, 60km
Updated: Thu, 09/21/2017 7:56 pm EDT
Clear
Clear
 Wind from NW
Wind: NW 7 mph , 11 km/h
Temperature: 72°F , 22°C
Dew Point: 64°F , 18°C
Humidity: 78%
Barometer: 30.02 inHg , 1016.6 hPa
Clouds: Clear
Visibility: 10 miles , 16 km
2017/09/21 23:56 KHPN 212356Z 32006KT 10SM CLR 22/18 A3002 RMK AO2 SLP160 T02170178 10250 20217 52005
KJFK - Nyc/Jfk Arpt, New York, USA
Distance from station: WSW 40mi, 64km
Updated: Thu, 09/21/2017 7:51 pm EDT
Mostly cloudy
Mostly cloudy
 Wind from N
Wind: N 9 mph , 15 km/h
Temperature: 75°F , 24°C
Dew Point: 64°F , 18°C
Humidity: 69%
Barometer: 30.01 inHg , 1016.3 hPa
Clouds: Mostly cloudy
Visibility: 10 miles , 16 km
Cloud details: Few Clouds 4000 ft
Few Clouds 20000 ft
Mostly cloudy 26000 ft
2017/09/21 23:51 KJFK 212351Z 01008KT 10SM FEW040 FEW200 BKN260 24/18 A3001 RMK AO2 SLP162 T02440183 10272 20244 53007
 
KDXR - Danbury, Connecticut, USA
Distance from station: NNW 42mi, 68km
Updated: Thu, 09/21/2017 7:53 pm EDT
Clear
Clear
 Wind from calm
Wind: Calm
Temperature: 72°F , 22°C
Dew Point: 64°F , 18°C
Humidity: 78%
Barometer: 30.04 inHg , 1017.3 hPa
Clouds: Clear
Visibility: 10 miles , 16 km
2017/09/21 23:53 KDXR 212353Z 00000KT 10SM CLR 22/18 A3004 RMK AO2 SLP167 T02220183 10256 20217 53005
KHTO - East Hampton, New York, USA
Distance from station: E 43mi, 69km
Updated: Thu, 09/21/2017 8:35 pm EDT
Overcast
Overcast
 Wind from N
Wind: N 16 mph , 26 km/h, Gust: 22 mph , 35 km/h
Temperature: 68°F , 20°C
Dew Point: 54°F , 12°C
Humidity: 60%
Barometer: 29.96 inHg , 1014.6 hPa
Clouds: Overcast
Visibility: 10 miles , 16 km
Cloud details: Partly cloudy 7000 ft
Overcast 8000 ft
2017/09/22 00:35 KHTO 220035Z AUTO 36014G19KT 10SM SCT070 OVC080 20/12 A2996 RMK AO2 T02030118
 
KOXC - Oxford/Waterbury, Connecticut, USA
Distance from station: N 43mi, 70km
Updated: Thu, 09/21/2017 7:51 pm EDT
Clear
Clear
 Wind from NNE
Wind: NNE 10 mph , 17 km/h
Temperature: 68°F , 20°C
Dew Point: 55°F , 13°C
Humidity: 64%
Barometer: 30.04 inHg , 1017.3 hPa
Clouds: Clear
Visibility: 10 miles , 16 km
2017/09/21 23:51 KOXC 212351Z 02009KT 10SM CLR 20/13 A3004 RMK AO2 SLP180 T02000128 10233 20200 51007
KLGA - Nyc/La Guardia, New York, USA
Distance from station: W 44mi, 70km
Updated: Thu, 09/21/2017 7:51 pm EDT
Mostly cloudy
Mostly cloudy
 Wind from N
Wind: N 7 mph , 11 km/h
Temperature: 75°F , 24°C
Dew Point: 64°F , 18°C
Humidity: 69%
Barometer: 30.00 inHg , 1015.9 hPa
Clouds: Mostly cloudy
Visibility: 10 miles , 16 km
Cloud details: Mostly cloudy 25000 ft
2017/09/21 23:51 KLGA 212351Z 01006KT 10SM BKN250 24/18 A3000 RMK AO2 SLP159 T02440178 10261 20244 53005
 
KSNC - Chester, Connecticut, USA
Distance from station: NE 47mi, 76km
Updated: Thu, 09/21/2017 8:35 pm EDT
Clear
Clear
 Wind from N
Wind: N 13 mph , 20 km/h, Gust: 22 mph , 35 km/h
Temperature: 68°F , 20°C
Dew Point: 52°F , 11°C
Humidity: 56%
Barometer: 30.01 inHg , 1016.3 hPa
Clouds: Clear
Visibility: 10 miles , 16 km
2017/09/22 00:35 KSNC 220035Z AUTO 36011G19KT 340V040 10SM CLR 20/11 A3001 RMK AO2
KMMK - Meriden, Connecticut, USA
Distance from station: NNE 48mi, 77km
Updated: Thu, 09/21/2017 7:53 pm EDT
Clear
Clear
 Wind from N
Wind: N 9 mph , 15 km/h
Temperature: 70°F , 21°C
Dew Point: 55°F , 13°C
Humidity: 60%
Barometer: 30.02 inHg , 1016.6 hPa
Clouds: Clear
Visibility: 10 miles , 16 km
2017/09/21 23:53 KMMK 212353Z AUTO 01008KT 10SM CLR 21/13 A3002 RMK AO2 SLP163 T02110128 10244 20211 53007
 
KNYC - Nyc/Central Park, New York, USA
Distance from station: W 48mi, 77km
Updated: Thu, 09/21/2017 7:51 pm EDT
Clear
Clear
 Wind from varies
Wind: varies 5 mph , 7 km/h
Temperature: 77°F , 25°C
Dew Point: 63°F , 17°C
Humidity: 61%
Barometer: 30.04 inHg , 1017.3 hPa
Clouds: Clear
Visibility: 10 miles , 16 km
2017/09/21 23:51 KNYC 212351Z AUTO VRB04KT 10SM CLR 25/17 A3004 RMK AO2 SLP161 T02500172 10267 20244 53005